Time;durP1;ratioP1;P1;durP2;ratioP2;P2;SDS_P1;SDS_P2;PMS_P1;PMS_P2;Temp;Humidity;BMP_temperature;BMP_pressure;BME280_temperature;BME280_humidity;BME280_pressure;Samples;Min_cycle;Max_cycle;Signal;HPM_P1;HPM_P2
2023/12/07 00:02:13;;;;;;;5.13;4.47;;;;;;;;;;5056491;28;20484;-70
2023/12/07 00:04:39;;;;;;;4.90;4.50;;;;;;;;;;5056473;28;20519;-72
2023/12/07 00:07:06;;;;;;;5.40;4.90;;;;;;;;;;5056649;28;20410;-70
2023/12/07 00:09:32;;;;;;;5.50;4.60;;;;;;;;;;5056595;28;20441;-70
2023/12/07 00:11:58;;;;;;;4.87;4.50;;;;;;;;;;5056432;28;20948;-70
2023/12/07 00:14:24;;;;;;;5.53;4.80;;;;;;;;;;5056179;28;20887;-70
2023/12/07 00:16:50;;;;;;;4.13;3.87;;;;;;;;;;5056718;28;20426;-70
2023/12/07 00:22:20;;;;;;;3.00;2.90;;;;;;;;;;5056270;28;20565;-70
2023/12/07 00:24:46;;;;;;;4.00;3.73;;;;;;;;;;5056200;28;20934;-71
2023/12/07 00:27:11;;;;;;;3.40;3.20;;;;;;;;;;5056277;28;20449;-70
2023/12/07 00:29:38;;;;;;;5.07;4.10;;;;;;;;;;5056235;28;20915;-70
2023/12/07 00:32:05;;;;;;;3.60;3.50;;;;;;;;;;5056620;28;20887;-70
2023/12/07 00:34:31;;;;;;;4.57;4.27;;;;;;;;;;5056224;28;20433;-70
2023/12/07 00:36:57;;;;;;;4.07;3.67;;;;;;;;;;5056047;28;20418;-70
2023/12/07 00:39:23;;;;;;;4.70;4.47;;;;;;;;;;5055867;28;20418;-70
2023/12/07 00:41:49;;;;;;;7.40;6.67;;;;;;;;;;5056142;28;20422;-71
2023/12/07 00:44:15;;;;;;;4.90;4.70;;;;;;;;;;5055846;28;20995;-70
2023/12/07 00:46:41;;;;;;;5.30;4.93;;;;;;;;;;5056183;28;20414;-70
2023/12/07 00:52:10;;;;;;;4.17;3.87;;;;;;;;;;5055839;28;20433;-70
2023/12/07 00:54:36;;;;;;;6.00;4.20;;;;;;;;;;5056304;28;20747;-71
2023/12/07 00:57:03;;;;;;;4.27;4.07;;;;;;;;;;5055803;28;20458;-71
2023/12/07 00:59:33;;;;;;;3.80;3.70;;;;;;;;;;5056444;28;20465;-71
2023/12/07 01:02:00;;;;;;;4.20;3.90;;;;;;;;;;5055468;28;20407;-71
2023/12/07 01:04:29;;;;;;;3.90;3.70;;;;;;;;;;5054045;28;20888;-71
2023/12/07 01:06:55;;;;;;;4.60;4.30;;;;;;;;;;5055819;28;20423;-70
2023/12/07 01:09:22;;;;;;;4.80;4.53;;;;;;;;;;5055864;28;20832;-71
2023/12/07 01:11:48;;;;;;;7.47;4.53;;;;;;;;;;5055656;28;20410;-72
2023/12/07 01:14:14;;;;;;;5.77;5.37;;;;;;;;;;5055489;28;20411;-73
2023/12/07 01:16:41;;;;;;;5.27;4.97;;;;;;;;;;5055838;28;20421;-71
2023/12/07 01:19:07;;;;;;;4.73;4.43;;;;;;;;;;5056452;28;20429;-70
2023/12/07 01:21:33;;;;;;;5.37;4.87;;;;;;;;;;5055403;28;20501;-70
2023/12/07 01:23:59;;;;;;;4.20;4.00;;;;;;;;;;5055053;28;20477;-71
2023/12/07 01:26:25;;;;;;;3.67;3.50;;;;;;;;;;5055157;28;20931;-71
2023/12/07 01:28:51;;;;;;;6.83;4.07;;;;;;;;;;5055120;28;20487;-70
2023/12/07 01:31:17;;;;;;;4.57;4.20;;;;;;;;;;5054999;28;20406;-71
2023/12/07 01:33:44;;;;;;;5.03;4.53;;;;;;;;;;5055051;28;20457;-71
2023/12/07 01:36:10;;;;;;;4.57;4.27;;;;;;;;;;5054924;28;20779;-70
2023/12/07 01:38:36;;;;;;;6.53;6.03;;;;;;;;;;5055168;28;20426;-70
2023/12/07 01:41:02;;;;;;;6.63;5.77;;;;;;;;;;5054973;28;20425;-70
2023/12/07 01:43:28;;;;;;;7.13;6.33;;;;;;;;;;5054686;28;20477;-70
2023/12/07 01:45:56;;;;;;;7.07;6.50;;;;;;;;;;5055042;28;20497;-70
2023/12/07 01:48:23;;;;;;;8.90;6.13;;;;;;;;;;5055130;28;20427;-71
2023/12/07 01:50:49;;;;;;;6.97;6.30;;;;;;;;;;5055131;28;20415;-70
2023/12/07 01:53:16;;;;;;;6.07;5.57;;;;;;;;;;5054652;28;20434;-71
2023/12/07 01:55:42;;;;;;;5.93;5.47;;;;;;;;;;5054669;28;20491;-70
2023/12/07 01:58:08;;;;;;;5.60;5.20;;;;;;;;;;5054834;28;20437;-71
2023/12/07 02:00:35;;;;;;;4.70;4.40;;;;;;;;;;5054503;28;20414;-70
2023/12/07 02:03:04;;;;;;;5.23;4.37;;;;;;;;;;5055040;28;20565;-71
2023/12/07 02:05:31;;;;;;;4.57;4.27;;;;;;;;;;5054189;28;20838;-70
2023/12/07 02:07:58;;;;;;;4.10;3.90;;;;;;;;;;5054397;28;20415;-70
2023/12/07 02:10:24;;;;;;;3.77;3.50;;;;;;;;;;5054248;28;20415;-70
2023/12/07 02:12:51;;;;;;;3.77;3.67;;;;;;;;;;5054652;28;20454;-71
2023/12/07 02:15:17;;;;;;;5.43;4.93;;;;;;;;;;5053772;28;20410;-70
2023/12/07 02:18:02;;;;;;;4.47;4.20;;;;;;;;;;5053827;28;20469;-70
2023/12/07 02:20:30;;;;;;;3.83;3.60;;;;;;;;;;5054071;28;20411;-71
2023/12/07 02:23:01;;;;;;;5.30;4.90;;;;;;;;;;5053722;28;20565;-71
2023/12/07 02:25:32;;;;;;;4.20;3.90;;;;;;;;;;5054180;28;20491;-71
2023/12/07 02:27:58;;;;;;;4.93;4.53;;;;;;;;;;5054263;28;20398;-70
2023/12/07 02:30:24;;;;;;;3.40;3.20;;;;;;;;;;5054155;28;20417;-70
2023/12/07 02:32:50;;;;;;;3.93;3.73;;;;;;;;;;5053813;28;20425;-70
2023/12/07 02:35:16;;;;;;;4.03;3.50;;;;;;;;;;5053845;28;20419;-70
2023/12/07 02:37:44;;;;;;;3.70;3.50;;;;;;;;;;5053736;28;20922;-70
2023/12/07 02:40:10;;;;;;;4.17;3.90;;;;;;;;;;5053865;28;20513;-71
2023/12/07 02:42:38;;;;;;;3.83;3.60;;;;;;;;;;5053855;28;20457;-71
2023/12/07 02:45:04;;;;;;;3.20;3.10;;;;;;;;;;5053809;28;20426;-71
2023/12/07 02:47:30;;;;;;;5.07;4.23;;;;;;;;;;5053862;28;20770;-71
2023/12/07 02:49:56;;;;;;;3.00;2.90;;;;;;;;;;5053819;28;20925;-70
2023/12/07 02:52:22;;;;;;;3.50;3.40;;;;;;;;;;5053717;28;20415;-70
2023/12/07 02:54:48;;;;;;;4.17;3.87;;;;;;;;;;5053392;28;21024;-71
2023/12/07 02:57:14;;;;;;;3.40;3.30;;;;;;;;;;5053757;28;20438;-71
2023/12/07 02:59:40;;;;;;;4.07;3.83;;;;;;;;;;5053588;28;20476;-70
2023/12/07 03:02:07;;;;;;;3.53;3.30;;;;;;;;;;5053469;28;20545;-71
2023/12/07 03:04:33;;;;;;;2.70;2.60;;;;;;;;;;5053413;28;20470;-70
2023/12/07 03:06:59;;;;;;;4.00;3.83;;;;;;;;;;5053566;28;20411;-71
2023/12/07 03:09:26;;;;;;;3.00;3.00;;;;;;;;;;5053483;28;20533;-70
2023/12/07 03:11:52;;;;;;;2.87;2.77;;;;;;;;;;5053541;28;20838;-71
2023/12/07 03:14:19;;;;;;;3.47;3.27;;;;;;;;;;5053403;28;20418;-70
2023/12/07 03:16:45;;;;;;;3.03;2.93;;;;;;;;;;5053191;28;20407;-70
2023/12/07 03:19:11;;;;;;;2.43;2.33;;;;;;;;;;5053452;28;20483;-70
2023/12/07 03:21:41;;;;;;;2.77;2.67;;;;;;;;;;5053105;28;20785;-70
2023/12/07 03:24:10;;;;;;;2.57;2.47;;;;;;;;;;5052882;28;20520;-72
2023/12/07 03:26:37;;;;;;;3.57;2.97;;;;;;;;;;5052368;28;20480;-71
2023/12/07 03:29:03;;;;;;;2.90;2.80;;;;;;;;;;5053556;28;20479;-71
2023/12/07 03:31:29;;;;;;;2.67;2.67;;;;;;;;;;5053882;28;20460;-72
2023/12/07 03:33:55;;;;;;;3.50;3.30;;;;;;;;;;5053080;28;20422;-72
2023/12/07 03:36:21;;;;;;;6.23;3.60;;;;;;;;;;5053269;28;20418;-70
2023/12/07 03:38:48;;;;;;;4.23;3.53;;;;;;;;;;5052719;28;20423;-70
2023/12/07 03:41:14;;;;;;;3.93;3.70;;;;;;;;;;5053443;28;20425;-71
2023/12/07 03:43:40;;;;;;;3.30;3.20;;;;;;;;;;5052831;28;20883;-70
2023/12/07 03:46:06;;;;;;;3.77;3.57;;;;;;;;;;5052833;28;20418;-71
2023/12/07 03:48:32;;;;;;;3.97;3.53;;;;;;;;;;5053097;28;20434;-70
2023/12/07 03:50:59;;;;;;;3.47;3.17;;;;;;;;;;5052739;28;20421;-71
2023/12/07 03:53:25;;;;;;;3.60;3.23;;;;;;;;;;5052755;28;20425;-70
2023/12/07 03:55:51;;;;;;;3.40;3.20;;;;;;;;;;5053082;28;20516;-71
2023/12/07 03:58:17;;;;;;;3.33;3.23;;;;;;;;;;5052675;28;20429;-70
2023/12/07 04:00:43;;;;;;;3.03;2.93;;;;;;;;;;5052947;28;20414;-71
2023/12/07 04:03:09;;;;;;;8.90;4.37;;;;;;;;;;5052594;28;20815;-71
2023/12/07 04:05:35;;;;;;;3.13;3.03;;;;;;;;;;5052515;28;20459;-71
2023/12/07 04:08:00;;;;;;;2.97;2.87;;;;;;;;;;5052675;28;20513;-70
2023/12/07 04:10:26;;;;;;;2.53;2.43;;;;;;;;;;5052647;28;20414;-71
2023/12/07 04:12:53;;;;;;;3.43;3.33;;;;;;;;;;5052582;28;20415;-70
2023/12/07 04:15:19;;;;;;;2.90;2.80;;;;;;;;;;5052831;28;20410;-71
2023/12/07 04:17:45;;;;;;;2.70;2.60;;;;;;;;;;5053273;28;20966;-70
2023/12/07 04:20:13;;;;;;;2.07;2.07;;;;;;;;;;5051257;28;20418;-70
2023/12/07 04:22:39;;;;;;;2.83;2.70;;;;;;;;;;5052230;28;20823;-71
2023/12/07 04:25:05;;;;;;;2.50;2.40;;;;;;;;;;5052714;28;20476;-70
2023/12/07 04:27:31;;;;;;;2.70;2.60;;;;;;;;;;5052723;28;20453;-71
2023/12/07 04:29:57;;;;;;;2.50;2.30;;;;;;;;;;5052509;28;20514;-71
2023/12/07 04:32:23;;;;;;;2.93;2.70;;;;;;;;;;5052447;28;20414;-72
2023/12/07 04:34:50;;;;;;;2.50;2.43;;;;;;;;;;5052673;28;20433;-71
2023/12/07 04:37:16;;;;;;;2.63;2.53;;;;;;;;;;5052816;28;20418;-71
2023/12/07 04:39:42;;;;;;;2.80;2.70;;;;;;;;;;5055956;28;20937;-71
2023/12/07 04:42:07;;;;;;;2.73;2.63;;;;;;;;;;5055930;28;20471;-70
2023/12/07 04:44:33;;;;;;;2.97;2.77;;;;;;;;;;5055871;28;20591;-70
2023/12/07 04:46:59;;;;;;;2.80;2.00;;;;;;;;;;5055770;28;20421;-71
2023/12/07 04:49:25;;;;;;;2.00;1.90;;;;;;;;;;5056375;28;20933;-71
2023/12/07 04:51:51;;;;;;;2.93;2.40;;;;;;;;;;5055862;28;20460;-70
2023/12/07 04:54:17;;;;;;;2.30;2.20;;;;;;;;;;5055808;28;20817;-71
2023/12/07 04:56:43;;;;;;;1.83;1.83;;;;;;;;;;5055719;28;20460;-70
2023/12/07 04:59:10;;;;;;;2.10;2.10;;;;;;;;;;5055976;28;20415;-70
2023/12/07 05:01:36;;;;;;;1.60;1.60;;;;;;;;;;5055635;28;20418;-71
2023/12/07 05:04:03;;;;;;;1.73;1.73;;;;;;;;;;5055380;28;21034;-70
2023/12/07 05:06:29;;;;;;;3.83;2.73;;;;;;;;;;5056268;28;20441;-71
2023/12/07 05:08:55;;;;;;;1.90;1.90;;;;;;;;;;5055749;28;20402;-70
2023/12/07 05:11:21;;;;;;;2.63;2.53;;;;;;;;;;5055654;28;20480;-71
2023/12/07 05:13:47;;;;;;;2.70;2.70;;;;;;;;;;5055640;28;20418;-70
2023/12/07 05:16:14;;;;;;;2.70;2.60;;;;;;;;;;5055599;28;20418;-71
2023/12/07 05:18:40;;;;;;;3.40;2.00;;;;;;;;;;5054059;28;20407;-70
2023/12/07 05:21:06;;;;;;;2.47;2.40;;;;;;;;;;5055591;28;20429;-72
2023/12/07 05:23:32;;;;;;;2.00;2.00;;;;;;;;;;5055036;28;20485;-71
2023/12/07 05:25:58;;;;;;;1.67;1.67;;;;;;;;;;5054166;28;20505;-72
2023/12/07 05:28:25;;;;;;;6.50;2.47;;;;;;;;;;5055237;28;20508;-72
2023/12/07 05:30:51;;;;;;;8.00;3.30;;;;;;;;;;5055486;28;20853;-72
2023/12/07 05:33:19;;;;;;;2.93;2.83;;;;;;;;;;5055094;28;20867;-70
2023/12/07 05:35:45;;;;;;;2.77;2.57;;;;;;;;;;5055005;28;20415;-70
2023/12/07 05:38:11;;;;;;;3.60;3.50;;;;;;;;;;5055187;28;20929;-70
2023/12/07 05:40:37;;;;;;;3.40;3.30;;;;;;;;;;5054839;28;20859;-70
2023/12/07 05:43:03;;;;;;;2.97;2.70;;;;;;;;;;5055001;28;20526;-70
2023/12/07 05:45:30;;;;;;;2.53;2.43;;;;;;;;;;5054757;28;20431;-70
2023/12/07 05:47:56;;;;;;;2.27;2.23;;;;;;;;;;5055100;28;20432;-71
2023/12/07 05:50:22;;;;;;;2.30;2.30;;;;;;;;;;5053877;28;20422;-70
2023/12/07 05:52:48;;;;;;;2.00;2.00;;;;;;;;;;5054880;28;20422;-70
2023/12/07 05:55:14;;;;;;;2.60;2.50;;;;;;;;;;5054805;28;20950;-70
2023/12/07 05:57:40;;;;;;;2.80;2.70;;;;;;;;;;5055102;28;20925;-70
2023/12/07 06:00:10;;;;;;;2.80;2.70;;;;;;;;;;5054783;28;20426;-70
2023/12/07 06:02:36;;;;;;;3.57;3.40;;;;;;;;;;5054632;28;20481;-70
2023/12/07 06:05:04;;;;;;;4.43;4.03;;;;;;;;;;5054315;28;20523;-70
2023/12/07 06:07:30;;;;;;;3.17;3.07;;;;;;;;;;5054537;28;20418;-70
2023/12/07 06:09:56;;;;;;;3.90;3.60;;;;;;;;;;5054289;28;20781;-70
2023/12/07 06:12:22;;;;;;;2.60;2.50;;;;;;;;;;5054132;28;20414;-70
2023/12/07 06:14:49;;;;;;;3.17;3.07;;;;;;;;;;5054465;28;20767;-70
2023/12/07 06:17:15;;;;;;;3.13;2.93;;;;;;;;;;5054108;28;20509;-71
2023/12/07 06:19:42;;;;;;;2.80;2.80;;;;;;;;;;5054393;28;20497;-70
2023/12/07 06:22:08;;;;;;;3.20;3.10;;;;;;;;;;5054149;28;20890;-70
2023/12/07 06:24:35;;;;;;;4.03;3.83;;;;;;;;;;5054010;28;20895;-70
2023/12/07 06:27:01;;;;;;;6.37;6.00;;;;;;;;;;5054154;28;20438;-71
2023/12/07 06:29:28;;;;;;;18.00;11.90;;;;;;;;;;5054211;28;20450;-70
2023/12/07 06:31:54;;;;;;;11.60;10.30;;;;;;;;;;5053657;28;20414;-70
2023/12/07 06:34:20;;;;;;;10.60;7.30;;;;;;;;;;5053847;28;20508;-70
2023/12/07 06:36:47;;;;;;;4.50;4.30;;;;;;;;;;5053788;28;20410;-71
2023/12/07 06:39:13;;;;;;;3.53;3.43;;;;;;;;;;5053497;28;20414;-71
2023/12/07 06:41:39;;;;;;;4.07;3.87;;;;;;;;;;5053811;28;20418;-71
2023/12/07 06:44:08;;;;;;;7.13;6.43;;;;;;;;;;5052467;28;20505;-71
2023/12/07 06:46:34;;;;;;;5.10;4.70;;;;;;;;;;5053838;28;20450;-71
2023/12/07 06:49:00;;;;;;;4.03;3.83;;;;;;;;;;5053592;28;20473;-71
2023/12/07 06:51:26;;;;;;;3.00;2.80;;;;;;;;;;5053480;28;20425;-71
2023/12/07 06:53:52;;;;;;;3.37;3.17;;;;;;;;;;5053815;28;20430;-71
2023/12/07 06:56:18;;;;;;;3.00;2.90;;;;;;;;;;5053399;28;20426;-71
2023/12/07 06:58:44;;;;;;;2.03;2.03;;;;;;;;;;5053631;28;20506;-71
2023/12/07 07:01:10;;;;;;;2.07;2.07;;;;;;;;;;5053130;28;20442;-71
2023/12/07 07:03:36;;;;;;;2.60;2.50;;;;;;;;;;5053011;28;20988;-71
2023/12/07 07:06:02;;;;;;;2.70;2.60;;;;;;;;;;5053421;28;20494;-71
2023/12/07 07:08:28;;;;;;;3.83;3.53;;;;;;;;;;5053224;28;20423;-71
2023/12/07 07:10:54;;;;;;;2.60;2.50;;;;;;;;;;5052999;28;20410;-71
2023/12/07 07:13:20;;;;;;;2.03;2.03;;;;;;;;;;5053835;28;20441;-71
2023/12/07 07:15:47;;;;;;;1.97;1.97;;;;;;;;;;5052918;28;20454;-71
2023/12/07 07:18:13;;;;;;;2.60;2.50;;;;;;;;;;5053344;28;20437;-72
2023/12/07 07:20:40;;;;;;;2.40;2.30;;;;;;;;;;5052753;28;20418;-71
2023/12/07 07:23:07;;;;;;;3.13;3.03;;;;;;;;;;5053143;28;20481;-72
2023/12/07 07:25:34;;;;;;;3.00;2.90;;;;;;;;;;5052841;28;20913;-71
2023/12/07 07:28:00;;;;;;;2.93;2.87;;;;;;;;;;5053148;28;20419;-71
2023/12/07 07:30:26;;;;;;;4.60;4.30;;;;;;;;;;5052826;28;20905;-71
2023/12/07 07:32:52;;;;;;;3.90;3.70;;;;;;;;;;5052732;28;21004;-71
2023/12/07 07:35:18;;;;;;;3.33;3.00;;;;;;;;;;5052842;28;20509;-71
2023/12/07 07:37:44;;;;;;;3.90;3.50;;;;;;;;;;5052616;28;20418;-71
2023/12/07 07:40:11;;;;;;;6.50;4.27;;;;;;;;;;5053010;28;20955;-71
2023/12/07 07:42:39;;;;;;;6.33;2.73;;;;;;;;;;5051252;28;20899;-70
2023/12/07 07:45:05;;;;;;;3.20;3.10;;;;;;;;;;5051725;28;20430;-71
2023/12/07 07:47:32;;;;;;;4.90;3.40;;;;;;;;;;5052898;28;20419;-70
2023/12/07 07:49:58;;;;;;;2.97;2.87;;;;;;;;;;5052472;28;20491;-71
2023/12/07 07:52:24;;;;;;;4.30;3.90;;;;;;;;;;5052706;28;20414;-71
2023/12/07 07:54:50;;;;;;;10.93;7.30;;;;;;;;;;5052835;28;20945;-71
2023/12/07 07:57:17;;;;;;;5.47;5.17;;;;;;;;;;5053066;28;20419;-70
2023/12/07 07:59:43;;;;;;;4.20;4.00;;;;;;;;;;5052929;28;20423;-70
2023/12/07 08:02:09;;;;;;;5.27;4.97;;;;;;;;;;5052615;28;20877;-70
2023/12/07 08:04:35;;;;;;;7.07;5.50;;;;;;;;;;5052492;28;20484;-70
2023/12/07 08:07:01;;;;;;;14.67;8.40;;;;;;;;;;5052617;28;20417;-71
2023/12/07 08:09:27;;;;;;;9.00;4.80;;;;;;;;;;5051179;28;20922;-70
2023/12/07 08:11:53;;;;;;;5.70;5.30;;;;;;;;;;5052407;28;20891;-70
2023/12/07 08:14:19;;;;;;;5.70;5.20;;;;;;;;;;5055978;28;20449;-70
2023/12/07 08:16:46;;;;;;;4.47;4.33;;;;;;;;;;5056200;28;20437;-70
2023/12/07 08:19:12;;;;;;;5.50;5.07;;;;;;;;;;5056248;28;20410;-70
2023/12/07 08:21:38;;;;;;;3.80;3.60;;;;;;;;;;5056274;28;20882;-70
2023/12/07 08:24:05;;;;;;;6.60;6.03;;;;;;;;;;5056101;28;20561;-70
2023/12/07 08:26:31;;;;;;;9.63;7.63;;;;;;;;;;5056443;28;20423;-71
2023/12/07 08:28:57;;;;;;;11.90;9.90;;;;;;;;;;5056147;28;20418;-71
2023/12/07 08:31:24;;;;;;;7.80;6.73;;;;;;;;;;5056323;28;20411;-71
2023/12/07 08:33:50;;;;;;;3.83;3.63;;;;;;;;;;5056125;28;20419;-71
2023/12/07 08:36:16;;;;;;;3.13;3.03;;;;;;;;;;5056047;28;20497;-70
2023/12/07 08:38:43;;;;;;;2.97;2.90;;;;;;;;;;5056163;28;20418;-71
2023/12/07 08:41:09;;;;;;;5.67;5.30;;;;;;;;;;5055875;28;20407;-71
2023/12/07 08:43:35;;;;;;;9.20;4.97;;;;;;;;;;5054477;28;20488;-70
2023/12/07 08:46:01;;;;;;;11.40;9.20;;;;;;;;;;5055772;28;20410;-71
2023/12/07 08:48:27;;;;;;;8.07;6.80;;;;;;;;;;5056457;28;20414;-70
2023/12/07 08:50:53;;;;;;;7.67;6.97;;;;;;;;;;5056294;28;20413;-70
2023/12/07 08:53:19;;;;;;;10.83;9.00;;;;;;;;;;5055827;28;20737;-70
2023/12/07 08:55:46;;;;;;;26.67;14.67;;;;;;;;;;5056129;28;20414;-70
2023/12/07 08:58:12;;;;;;;23.70;14.37;;;;;;;;;;5055864;28;20430;-70
2023/12/07 09:00:38;;;;;;;13.70;11.57;;;;;;;;;;5055977;28;20812;-71
2023/12/07 09:03:04;;;;;;;6.53;6.10;;;;;;;;;;5055191;28;20509;-71
2023/12/07 09:05:30;;;;;;;4.50;4.30;;;;;;;;;;5055179;28;20588;-71
2023/12/07 09:07:56;;;;;;;3.60;3.50;;;;;;;;;;5055631;28;20430;-71
2023/12/07 09:10:23;;;;;;;3.90;3.80;;;;;;;;;;5053833;28;20888;-75
2023/12/07 09:12:49;;;;;;;3.93;3.80;;;;;;;;;;5055383;28;20782;-72
2023/12/07 09:15:15;;;;;;;3.37;3.27;;;;;;;;;;5055322;28;20398;-73
2023/12/07 09:17:41;;;;;;;4.60;4.20;;;;;;;;;;5055188;28;20429;-71
2023/12/07 09:20:14;;;;;;;5.83;5.30;;;;;;;;;;5054989;28;20453;-71
2023/12/07 09:22:41;;;;;;;6.13;5.73;;;;;;;;;;5054588;28;20930;-71
2023/12/07 09:25:08;;;;;;;4.20;4.00;;;;;;;;;;5054088;28;20423;-70
2023/12/07 09:27:35;;;;;;;12.17;9.40;;;;;;;;;;5053561;28;20427;-70
2023/12/07 09:30:02;;;;;;;5.93;5.40;;;;;;;;;;5055069;28;20863;-71
2023/12/07 09:32:28;;;;;;;5.10;4.80;;;;;;;;;;5054872;28;20410;-70
2023/12/07 09:34:54;;;;;;;4.90;4.63;;;;;;;;;;5055062;28;20780;-71
2023/12/07 09:37:20;;;;;;;4.10;3.93;;;;;;;;;;5054903;28;20910;-71
2023/12/07 09:39:46;;;;;;;4.57;4.37;;;;;;;;;;5054538;28;20410;-71
2023/12/07 09:42:12;;;;;;;7.47;6.50;;;;;;;;;;5054536;28;20455;-71
2023/12/07 09:44:38;;;;;;;4.87;4.67;;;;;;;;;;5054318;28;20435;-71
2023/12/07 09:47:04;;;;;;;5.20;4.90;;;;;;;;;;5054970;28;20426;-70
2023/12/07 09:49:30;;;;;;;4.00;3.83;;;;;;;;;;5054474;28;20433;-72
2023/12/07 09:51:57;;;;;;;5.13;4.80;;;;;;;;;;5054598;28;20414;-70
2023/12/07 09:54:25;;;;;;;3.70;3.57;;;;;;;;;;5054769;28;20442;-71
2023/12/07 09:56:53;;;;;;;5.30;3.40;;;;;;;;;;5054932;28;20454;-71
2023/12/07 09:59:19;;;;;;;4.60;4.33;;;;;;;;;;5054730;28;20422;-71
2023/12/07 10:01:45;;;;;;;3.47;3.30;;;;;;;;;;5054303;28;20426;-71
2023/12/07 10:04:18;;;;;;;3.73;3.50;;;;;;;;;;5052786;28;20525;-71
2023/12/07 10:06:45;;;;;;;7.50;3.93;;;;;;;;;;5054430;28;20410;-71
2023/12/07 10:09:11;;;;;;;3.80;3.70;;;;;;;;;;5054619;28;20406;-71
2023/12/07 10:11:37;;;;;;;3.90;3.80;;;;;;;;;;5054649;28;20445;-71
2023/12/07 10:14:03;;;;;;;3.20;3.10;;;;;;;;;;5054392;28;20759;-71
2023/12/07 10:16:29;;;;;;;3.40;3.20;;;;;;;;;;5054106;28;20432;-71
2023/12/07 10:18:55;;;;;;;3.47;3.37;;;;;;;;;;5053969;28;20775;-72
2023/12/07 10:21:33;;;;;;;4.47;4.27;;;;;;;;;;5054135;28;20929;-71
2023/12/07 10:23:59;;;;;;;4.80;4.60;;;;;;;;;;5053984;28;20474;-71
2023/12/07 10:26:25;;;;;;;5.13;4.73;;;;;;;;;;5053853;28;20902;-71
2023/12/07 10:28:54;;;;;;;5.17;4.97;;;;;;;;;;5054053;28;20492;-71
2023/12/07 10:31:20;;;;;;;5.00;4.80;;;;;;;;;;5053474;28;20761;-72
2023/12/07 10:33:50;;;;;;;6.00;5.50;;;;;;;;;;5053791;28;20762;-71
2023/12/07 10:36:15;;;;;;;4.77;4.57;;;;;;;;;;5053536;28;20413;-72
2023/12/07 10:38:41;;;;;;;6.20;4.27;;;;;;;;;;5053740;28;20414;-72
2023/12/07 10:41:09;;;;;;;5.57;5.20;;;;;;;;;;5053471;28;20484;-71
2023/12/07 10:43:37;;;;;;;4.83;4.43;;;;;;;;;;5054000;28;20478;-72
2023/12/07 10:46:05;;;;;;;7.23;6.50;;;;;;;;;;5053500;28;20480;-72
2023/12/07 10:48:33;;;;;;;8.70;7.00;;;;;;;;;;5053898;28;20502;-72
2023/12/07 10:51:00;;;;;;;6.83;6.20;;;;;;;;;;5052067;28;20415;-72
2023/12/07 10:53:33;;;;;;;5.60;5.20;;;;;;;;;;5053554;28;20513;-71
2023/12/07 10:56:03;;;;;;;5.37;5.07;;;;;;;;;;5053681;28;20411;-72
2023/12/07 10:58:29;;;;;;;7.07;6.47;;;;;;;;;;5053373;28;20459;-72
2023/12/07 11:00:55;;;;;;;6.73;6.03;;;;;;;;;;5053525;28;20517;-72
2023/12/07 11:03:21;;;;;;;6.23;5.83;;;;;;;;;;5053349;28;20838;-72
2023/12/07 11:05:50;;;;;;;5.70;5.40;;;;;;;;;;5053183;28;21045;-71
2023/12/07 11:08:29;;;;;;;7.10;6.60;;;;;;;;;;5053187;28;20871;-71
2023/12/07 11:11:15;;;;;;;4.00;3.70;;;;;;;;;;5052879;28;20417;-71
2023/12/07 11:13:47;;;;;;;6.13;5.70;;;;;;;;;;5053065;28;20413;-71
2023/12/07 11:16:14;;;;;;;7.60;7.07;;;;;;;;;;5053199;28;20879;-72
2023/12/07 11:18:40;;;;;;;7.43;6.73;;;;;;;;;;5054082;28;20425;-72
2023/12/07 11:21:06;;;;;;;7.77;6.67;;;;;;;;;;5053151;28;20402;-72
2023/12/07 11:23:32;;;;;;;7.83;7.17;;;;;;;;;;5053138;28;20466;-72
2023/12/07 11:25:58;;;;;;;7.27;6.30;;;;;;;;;;5051790;28;20914;-71
2023/12/07 11:28:37;;;;;;;6.77;6.00;;;;;;;;;;5052756;28;20948;-71
2023/12/07 11:31:03;;;;;;;8.50;6.53;;;;;;;;;;5052897;28;20422;-72
2023/12/07 11:33:30;;;;;;;6.27;5.77;;;;;;;;;;5052883;28;20774;-71
2023/12/07 11:36:02;;;;;;;5.83;5.43;;;;;;;;;;5052856;28;20415;-71
2023/12/07 11:41:35;;;;;;;7.13;6.53;;;;;;;;;;5052625;28;20456;-71
2023/12/07 11:44:01;;;;;;;12.07;8.77;;;;;;;;;;5052925;28;20470;-71
2023/12/07 11:46:27;;;;;;;48.07;21.00;;;;;;;;;;5053118;28;20410;-72
2023/12/07 11:48:54;;;;;;;8.80;6.60;;;;;;;;;;5055523;28;20473;-72
2023/12/07 11:51:20;;;;;;;6.20;5.70;;;;;;;;;;5057170;28;20485;-72
2023/12/07 11:53:48;;;;;;;16.40;9.97;;;;;;;;;;5056761;28;20513;-71
2023/12/07 11:56:18;;;;;;;17.30;10.57;;;;;;;;;;5057145;28;20409;-71
2023/12/07 11:58:44;;;;;;;20.10;12.27;;;;;;;;;;5056591;28;20800;-71
2023/12/07 12:01:11;;;;;;;17.23;11.63;;;;;;;;;;5056658;28;20410;-72
2023/12/07 12:03:37;;;;;;;74.13;31.17;;;;;;;;;;5056658;28;20485;-71
2023/12/07 12:06:04;;;;;;;10.57;8.00;;;;;;;;;;5056901;28;20767;-72
2023/12/07 12:08:31;;;;;;;16.93;11.37;;;;;;;;;;5057344;28;20414;-72
2023/12/07 12:10:57;;;;;;;5.63;5.30;;;;;;;;;;5056544;28;20414;-72
2023/12/07 12:13:27;;;;;;;5.17;4.93;;;;;;;;;;5056756;28;20426;-71
2023/12/07 12:15:53;;;;;;;7.13;6.20;;;;;;;;;;5056824;28;20456;-71
2023/12/07 12:18:20;;;;;;;6.80;6.30;;;;;;;;;;5056402;28;20464;-72
2023/12/07 12:20:46;;;;;;;22.97;14.80;;;;;;;;;;5056270;28;20411;-71
2023/12/07 12:23:12;;;;;;;5.27;4.97;;;;;;;;;;5056082;28;20505;-71
2023/12/07 12:25:39;;;;;;;5.50;5.10;;;;;;;;;;5056219;28;20417;-71
2023/12/07 12:28:06;;;;;;;4.97;4.57;;;;;;;;;;5056218;28;20422;-72
2023/12/07 12:30:33;;;;;;;7.00;5.90;;;;;;;;;;5056117;28;20416;-71
2023/12/07 12:32:59;;;;;;;10.60;8.33;;;;;;;;;;5054692;28;20426;-71
2023/12/07 12:35:26;;;;;;;6.20;5.80;;;;;;;;;;5056369;28;20564;-71
2023/12/07 12:37:52;;;;;;;6.87;6.20;;;;;;;;;;5055901;28;20735;-71
2023/12/07 12:40:21;;;;;;;6.20;5.63;;;;;;;;;;5056189;28;20448;-72
2023/12/07 12:42:48;;;;;;;7.57;6.57;;;;;;;;;;5056028;28;20462;-71
2023/12/07 12:45:15;;;;;;;6.50;6.00;;;;;;;;;;5056002;28;20442;-71
2023/12/07 12:47:41;;;;;;;7.13;6.47;;;;;;;;;;5056236;28;20418;-71
2023/12/07 12:50:07;;;;;;;7.73;6.97;;;;;;;;;;5056322;28;20418;-71
2023/12/07 12:52:34;;;;;;;9.63;6.70;;;;;;;;;;5055851;28;20502;-71
2023/12/07 12:55:00;;;;;;;9.87;6.87;;;;;;;;;;5055831;28;20414;-71
2023/12/07 12:57:26;;;;;;;9.57;6.97;;;;;;;;;;5055938;28;20819;-71
2023/12/07 12:59:52;;;;;;;6.57;5.97;;;;;;;;;;5055496;28;20833;-71
2023/12/07 13:02:19;;;;;;;7.00;6.40;;;;;;;;;;5055798;28;20410;-71
2023/12/07 13:04:45;;;;;;;16.43;12.87;;;;;;;;;;5055377;28;20966;-71
2023/12/07 13:07:15;;;;;;;7.90;7.40;;;;;;;;;;5055846;28;20835;-72
2023/12/07 13:09:43;;;;;;;6.07;5.70;;;;;;;;;;5055347;28;20458;-71
2023/12/07 13:12:09;;;;;;;6.80;6.40;;;;;;;;;;5055327;28;20415;-71
2023/12/07 13:14:37;;;;;;;14.70;9.07;;;;;;;;;;5055415;28;20429;-71
2023/12/07 13:17:03;;;;;;;17.47;12.57;;;;;;;;;;5055656;28;20463;-71
2023/12/07 13:19:29;;;;;;;6.83;5.07;;;;;;;;;;5055287;28;20414;-70
2023/12/07 13:21:56;;;;;;;11.90;8.27;;;;;;;;;;5055472;28;20403;-70
2023/12/07 13:24:22;;;;;;;7.27;6.67;;;;;;;;;;5056049;28;20604;-70
2023/12/07 13:26:48;;;;;;;18.97;12.47;;;;;;;;;;5055120;28;20441;-70
2023/12/07 13:29:14;;;;;;;11.93;8.50;;;;;;;;;;5055100;28;20488;-70
2023/12/07 13:31:40;;;;;;;9.60;8.60;;;;;;;;;;5055210;28;20875;-71
2023/12/07 13:34:06;;;;;;;6.83;6.13;;;;;;;;;;5054843;28;20426;-71
2023/12/07 13:36:33;;;;;;;6.63;6.13;;;;;;;;;;5055633;28;20418;-70
2023/12/07 13:39:02;;;;;;;8.97;6.80;;;;;;;;;;5054643;28;20524;-71
2023/12/07 13:41:28;;;;;;;6.77;6.17;;;;;;;;;;5054808;28;20442;-72
2023/12/07 13:43:54;;;;;;;15.40;11.70;;;;;;;;;;5054266;28;20513;-71
2023/12/07 13:46:20;;;;;;;6.73;6.03;;;;;;;;;;5054404;28;20414;-71
2023/12/07 13:48:46;;;;;;;7.73;5.90;;;;;;;;;;5053337;28;20518;-70
2023/12/07 13:51:12;;;;;;;7.80;7.20;;;;;;;;;;5054740;28;20548;-71
2023/12/07 13:53:39;;;;;;;7.67;7.07;;;;;;;;;;5054836;28;20493;-71
2023/12/07 13:56:05;;;;;;;8.70;6.93;;;;;;;;;;5054597;28;20407;-71
2023/12/07 13:58:31;;;;;;;12.43;8.47;;;;;;;;;;5054355;28;20418;-70
2023/12/07 14:00:57;;;;;;;7.00;6.33;;;;;;;;;;5054437;28;20422;-70
2023/12/07 14:03:23;;;;;;;8.00;6.93;;;;;;;;;;5054052;28;20477;-71
2023/12/07 14:05:49;;;;;;;7.50;6.80;;;;;;;;;;5054285;28;20433;-71
2023/12/07 14:08:15;;;;;;;10.73;7.50;;;;;;;;;;5054239;28;20457;-70
2023/12/07 14:10:41;;;;;;;14.13;11.87;;;;;;;;;;5053401;28;20430;-71
2023/12/07 14:13:09;;;;;;;12.10;10.37;;;;;;;;;;5054556;28;20911;-71
2023/12/07 14:15:35;;;;;;;7.53;6.93;;;;;;;;;;5054334;28;20429;-70
2023/12/07 14:18:02;;;;;;;8.00;7.30;;;;;;;;;;5054074;28;20774;-70
2023/12/07 14:20:28;;;;;;;8.03;7.33;;;;;;;;;;5054213;28;20477;-71
2023/12/07 14:22:55;;;;;;;9.33;8.50;;;;;;;;;;5053221;28;20465;-71
2023/12/07 14:25:21;;;;;;;7.37;6.83;;;;;;;;;;5054034;28;20437;-70
2023/12/07 14:27:47;;;;;;;8.10;7.30;;;;;;;;;;5054167;28;20406;-71
2023/12/07 14:30:13;;;;;;;8.20;7.50;;;;;;;;;;5053710;28;20864;-71
2023/12/07 14:32:43;;;;;;;14.37;10.97;;;;;;;;;;5052367;28;20465;-70
2023/12/07 14:35:09;;;;;;;11.50;8.90;;;;;;;;;;5054147;28;20395;-71
2023/12/07 14:37:35;;;;;;;9.00;8.10;;;;;;;;;;5053416;28;20745;-71
2023/12/07 14:40:01;;;;;;;9.47;7.80;;;;;;;;;;5053809;28;20406;-71
2023/12/07 14:42:27;;;;;;;8.60;7.77;;;;;;;;;;5053771;28;20426;-71
2023/12/07 14:44:53;;;;;;;14.13;9.90;;;;;;;;;;5053720;28;20429;-71
2023/12/07 14:47:19;;;;;;;8.77;7.87;;;;;;;;;;5053593;28;20497;-71